Welcome to Caribbean Wings!

Know this module!

Admissions Login


 METAR AND TAF INFORMATION
METAR FOR SKAR
ADDS - METARS form results

(1542 UTC 16 October 2019)
Data provider http://aviationweather.gov/metar/data/
 
METAR text: SKAR 161500Z 00000KT 7000 VCFG BKN010 21/20 A3010
Conditions at: SKAR (ARMENIA/EL EDEN , CO) observed 1500 UTC 16 October 2019
Temperature: 21.0°C (70°F)
Dewpoint: 20.0°C (68°F) [RH = 94%]
Pressure (altimeter): 30.10 inches Hg (1019.4 mb)
Winds: calm
Visibility: 4 miles ( 7 km)
Ceiling: 1000 feet AGL
Clouds: broken clouds at 1000 feet AGL
Weather: VCFG  (fog in vicinity)

 AIRPORT MAP

 RUNWAY INFORMATION
Runway 02 Runway length 7045 ft Runway width 118 ft
Runway elevation 3968 ft Runway displaced threshold 0 ft Runway heading 13
Runway 20 Runway length 7045 ft Runway width 118 ft
Runway elevation 3979 ft Runway displaced threshold 0 ft Runway heading 193

 AIRPORT FREQUENCIES
Type APP Name PEREIRA AP Frequency 119.9 MHZ
Type RDO Name ARMENIA RD Frequency 348.8 MHZ
Type TWR Name TWR Frequency 118.5 MHZ

 AIRPORT NEAR NAVIGATION AIDS
Type NDB Name Armenia Frequency 315 KHZ